createdAt,value
2019-05-20T00:00:48.731Z,1.30
2019-05-20T00:03:18.052Z,1.40
2019-05-20T00:05:47.453Z,1.17
2019-05-20T00:08:16.899Z,1.13
2019-05-20T00:10:46.073Z,1.30
2019-05-20T00:13:15.299Z,1.30
2019-05-20T00:15:44.482Z,1.10
2019-05-20T00:18:13.654Z,1.10
2019-05-20T00:20:42.888Z,1.10
2019-05-20T00:23:12.086Z,0.93
2019-05-20T00:25:41.263Z,1.07
2019-05-20T00:28:10.452Z,1.03
2019-05-20T00:30:39.635Z,1.10
2019-05-20T00:33:08.806Z,1.00
2019-05-20T00:35:37.963Z,1.00
2019-05-20T00:38:07.160Z,0.83
2019-05-20T00:40:36.357Z,0.80
2019-05-20T00:43:05.504Z,0.90
2019-05-20T00:45:34.721Z,1.03
2019-05-20T00:48:03.877Z,0.80
2019-05-20T00:50:33.810Z,0.77
2019-05-20T00:53:02.982Z,0.90
2019-05-20T00:55:32.497Z,0.77
2019-05-20T00:58:01.669Z,0.80
2019-05-20T01:00:30.829Z,0.70
2019-05-20T01:02:59.997Z,0.90
2019-05-20T01:05:29.192Z,0.90
2019-05-20T01:07:58.402Z,0.93
2019-05-20T01:10:27.605Z,0.60
2019-05-20T01:12:56.694Z,0.70
2019-05-20T01:15:25.857Z,0.80
2019-05-20T01:17:55.050Z,1.20
2019-05-20T01:20:24.201Z,1.00
2019-05-20T01:22:53.305Z,1.00
2019-05-20T01:25:22.397Z,0.70
2019-05-20T01:27:51.561Z,1.07
2019-05-20T01:30:20.672Z,1.10
2019-05-20T01:32:49.878Z,1.00
2019-05-20T01:35:19.046Z,1.20
2019-05-20T01:37:48.233Z,1.10
2019-05-20T01:40:17.811Z,1.23
2019-05-20T01:42:46.990Z,1.67
2019-05-20T01:45:16.095Z,1.53
2019-05-20T01:47:45.273Z,1.80
2019-05-20T01:50:14.542Z,2.20
2019-05-20T01:52:43.717Z,2.03
2019-05-20T01:55:12.885Z,2.60
2019-05-20T01:57:41.991Z,2.70
2019-05-20T02:00:11.402Z,3.40
2019-05-20T02:02:40.586Z,4.00
2019-05-20T02:05:09.779Z,4.10
2019-05-20T02:07:38.960Z,3.97
2019-05-20T02:10:08.555Z,4.40
2019-05-20T02:12:37.732Z,4.27
2019-05-20T02:15:12.809Z,4.40
2019-05-20T02:17:41.990Z,5.00
2019-05-20T02:20:11.573Z,4.77
2019-05-20T02:22:40.690Z,5.07
2019-05-20T02:25:09.870Z,5.20
2019-05-20T02:27:39.045Z,5.63
2019-05-20T02:30:08.237Z,5.73
2019-05-20T02:32:37.384Z,6.30
2019-05-20T02:35:07.059Z,6.17
2019-05-20T02:37:36.251Z,7.43
2019-05-20T02:40:05.767Z,8.10
2019-05-20T02:42:34.954Z,8.83
2019-05-20T02:45:04.297Z,8.20
2019-05-20T02:47:33.489Z,9.43
2019-05-20T02:50:02.693Z,9.00
2019-05-20T02:52:31.843Z,9.23
2019-05-20T02:55:01.010Z,9.87
2019-05-20T02:57:30.800Z,10.33
2019-05-20T02:59:59.993Z,10.07
2019-05-20T03:02:29.187Z,10.37
2019-05-20T03:04:58.366Z,10.57
2019-05-20T03:07:27.563Z,10.27
2019-05-20T03:09:56.819Z,10.93
2019-05-20T03:12:25.990Z,11.13
2019-05-20T03:14:55.177Z,10.70
2019-05-20T03:17:24.610Z,10.90
2019-05-20T03:19:53.778Z,10.80
2019-05-20T03:22:22.950Z,10.53
2019-05-20T03:24:52.122Z,10.87
2019-05-20T03:27:21.706Z,10.63
2019-05-20T03:29:50.812Z,11.07
2019-05-20T03:32:20.047Z,11.80
2019-05-20T03:34:58.655Z,11.33
2019-05-20T03:37:20.021Z,10.70
2019-05-20T03:39:49.203Z,11.00
2019-05-20T03:42:18.396Z,10.03
2019-05-20T03:44:47.578Z,11.60
2019-05-20T03:47:16.916Z,11.30
2019-05-20T03:49:46.091Z,10.70
2019-05-20T03:52:15.320Z,11.60
2019-05-20T03:54:44.485Z,10.93
2019-05-20T03:57:13.651Z,10.43
2019-05-20T03:59:42.923Z,10.00
2019-05-20T04:02:12.122Z,9.73
2019-05-20T04:04:41.284Z,10.10
2019-05-20T04:07:10.470Z,9.20
2019-05-20T04:09:39.711Z,8.93
2019-05-20T04:12:09.010Z,8.43
2019-05-20T04:14:38.277Z,8.03
2019-05-20T04:17:07.434Z,8.93
2019-05-20T04:19:36.663Z,8.57
2019-05-20T04:22:05.804Z,8.53
2019-05-20T04:24:35.078Z,8.40
2019-05-20T04:27:04.221Z,7.63
2019-05-20T04:29:33.310Z,7.97
2019-05-20T04:32:02.503Z,8.00
2019-05-20T04:34:31.674Z,7.83
2019-05-20T04:37:00.850Z,8.27
2019-05-20T04:39:30.068Z,8.00
2019-05-20T04:41:59.227Z,7.87
2019-05-20T04:44:28.338Z,7.53
2019-05-20T04:46:58.117Z,8.07
2019-05-20T04:49:27.309Z,7.40
2019-05-20T04:51:56.512Z,7.83
2019-05-20T04:54:25.654Z,7.40
2019-05-20T04:56:54.830Z,7.80
2019-05-20T04:59:24.007Z,7.57
2019-05-20T05:01:53.240Z,7.73
2019-05-20T05:04:22.415Z,7.27
2019-05-20T05:06:51.594Z,8.00
2019-05-20T05:09:20.770Z,7.67
2019-05-20T05:11:49.951Z,7.80
2019-05-20T05:14:19.136Z,7.50
2019-05-20T05:16:48.338Z,6.50
2019-05-20T05:19:17.635Z,6.00
2019-05-20T05:21:46.811Z,6.53
2019-05-20T05:24:15.971Z,5.80
2019-05-20T05:26:47.861Z,6.90
2019-05-20T05:29:15.974Z,7.87
2019-05-20T05:31:45.153Z,8.53
2019-05-20T05:34:14.334Z,9.37
2019-05-20T05:36:43.443Z,8.90
2019-05-20T05:39:12.622Z,9.10
2019-05-20T05:41:41.802Z,9.27
2019-05-20T05:44:10.974Z,9.30
2019-05-20T05:46:40.173Z,9.87
2019-05-20T05:49:09.366Z,10.90
2019-05-20T05:51:38.750Z,10.73
2019-05-20T05:54:15.581Z,9.77
2019-05-20T05:56:40.553Z,9.87
2019-05-20T05:59:09.719Z,10.93
2019-05-20T06:01:38.892Z,10.37
2019-05-20T06:04:08.071Z,11.03
2019-05-20T06:06:37.246Z,10.03
2019-05-20T06:09:07.462Z,10.17
2019-05-20T06:11:36.626Z,9.90
2019-05-20T06:14:05.743Z,10.23
2019-05-20T06:16:36.921Z,9.90
2019-05-20T06:19:05.754Z,10.13
2019-05-20T06:21:34.940Z,10.10
2019-05-20T06:24:04.112Z,10.20
2019-05-20T06:26:33.309Z,10.27
2019-05-20T06:29:03.124Z,10.60
2019-05-20T06:31:32.613Z,10.23
2019-05-20T06:34:01.815Z,10.27
2019-05-20T06:36:31.766Z,10.37
2019-05-20T06:39:13.657Z,10.30
2019-05-20T06:41:43.177Z,9.47
2019-05-20T06:44:12.282Z,8.80
2019-05-20T06:46:41.378Z,8.90
2019-05-20T06:49:10.556Z,9.77
2019-05-20T06:51:39.754Z,9.07
2019-05-20T06:54:08.922Z,8.50
2019-05-20T06:56:38.118Z,9.10
2019-05-20T06:59:07.225Z,8.73
2019-05-20T07:01:36.407Z,7.60
2019-05-20T07:04:05.578Z,8.17
2019-05-20T07:06:45.864Z,7.23
2019-05-20T07:09:06.394Z,7.23
2019-05-20T07:11:35.583Z,7.60
2019-05-20T07:14:04.742Z,7.93
2019-05-20T07:16:33.934Z,7.20
2019-05-20T07:19:03.108Z,7.23
2019-05-20T07:21:32.281Z,6.60
2019-05-20T07:24:01.457Z,7.17
2019-05-20T07:26:30.658Z,7.33
2019-05-20T07:28:59.905Z,7.07
2019-05-20T07:31:29.102Z,7.43
2019-05-20T07:33:58.389Z,7.13
2019-05-20T07:36:27.637Z,7.03
2019-05-20T07:38:56.825Z,7.40
2019-05-20T07:41:25.982Z,7.40
2019-05-20T07:43:55.247Z,7.70
2019-05-20T07:46:24.401Z,8.00
2019-05-20T07:48:53.600Z,8.23
2019-05-20T07:51:22.756Z,7.80
2019-05-20T07:53:52.008Z,6.97
2019-05-20T07:56:24.018Z,7.70
2019-05-20T07:58:54.602Z,7.20
2019-05-20T08:01:23.785Z,7.17
2019-05-20T08:03:52.954Z,6.83
2019-05-20T08:06:22.158Z,6.97
2019-05-20T08:08:51.306Z,7.03
2019-05-20T08:11:20.625Z,7.03
2019-05-20T08:13:49.791Z,7.10
2019-05-20T08:16:19.149Z,6.77
2019-05-20T08:18:48.276Z,6.83
2019-05-20T08:21:17.470Z,7.83
2019-05-20T08:23:50.029Z,6.77
2019-05-20T08:26:17.702Z,6.70
2019-05-20T08:28:46.806Z,6.87
2019-05-20T08:31:15.896Z,7.17
2019-05-20T08:33:45.069Z,6.80
2019-05-20T08:36:14.164Z,6.70
2019-05-20T08:38:43.359Z,6.70
2019-05-20T08:41:12.538Z,6.90
2019-05-20T08:43:41.742Z,7.47
2019-05-20T08:46:10.912Z,7.00
2019-05-20T08:48:40.119Z,6.40
2019-05-20T08:51:09.306Z,7.40
2019-05-20T08:53:38.478Z,6.70
2019-05-20T08:56:07.701Z,7.10
2019-05-20T08:58:36.861Z,7.43
2019-05-20T09:01:07.027Z,7.23
2019-05-20T09:03:36.546Z,8.27
2019-05-20T09:06:05.745Z,7.23
2019-05-20T09:08:34.886Z,8.23
2019-05-20T09:11:04.064Z,7.43
2019-05-20T09:13:33.235Z,7.93
2019-05-20T09:16:02.446Z,7.10
2019-05-20T09:18:31.753Z,7.33
2019-05-20T09:21:00.978Z,7.97
2019-05-20T09:23:30.142Z,7.47
2019-05-20T09:25:59.314Z,7.73
2019-05-20T09:28:28.520Z,7.60
2019-05-20T09:30:57.674Z,7.60
2019-05-20T09:33:29.173Z,8.47
2019-05-20T09:35:58.330Z,7.80
2019-05-20T09:38:27.519Z,7.97
2019-05-20T09:40:56.708Z,8.10
2019-05-20T09:43:25.884Z,8.03
2019-05-20T09:46:06.235Z,8.53
2019-05-20T09:48:25.878Z,8.20
2019-05-20T09:50:55.054Z,7.43
2019-05-20T09:53:24.508Z,7.20
2019-05-20T09:55:53.687Z,8.50
2019-05-20T09:58:22.853Z,7.73
2019-05-20T10:00:52.043Z,8.00
2019-05-20T10:03:21.224Z,8.13
2019-05-20T10:05:50.396Z,7.40
2019-05-20T10:08:36.552Z,7.23
2019-05-20T10:10:50.578Z,6.20
2019-05-20T10:13:19.914Z,7.27
2019-05-20T10:15:49.126Z,6.50
2019-05-20T10:18:35.640Z,6.80
2019-05-20T10:20:49.243Z,6.03
2019-05-20T10:23:18.633Z,6.90
2019-05-20T10:25:47.827Z,6.43
2019-05-20T10:28:17.277Z,6.33
2019-05-20T10:30:46.439Z,5.87
2019-05-20T10:33:15.602Z,5.63
2019-05-20T10:35:44.782Z,6.70
2019-05-20T10:38:13.956Z,6.33
2019-05-20T10:40:43.406Z,5.97
2019-05-20T10:43:12.574Z,5.07
2019-05-20T10:45:41.758Z,5.10
2019-05-20T10:48:10.914Z,5.80
2019-05-20T10:50:40.100Z,5.80
2019-05-20T10:53:09.274Z,5.77
2019-05-20T10:55:38.470Z,5.03
2019-05-20T10:58:07.625Z,5.73
2019-05-20T11:00:36.779Z,5.10
2019-05-20T11:03:06.182Z,5.40
2019-05-20T11:05:35.342Z,5.15
2019-05-20T11:08:04.443Z,5.28
2019-05-20T11:10:33.620Z,6.03
2019-05-20T11:13:02.861Z,5.73
2019-05-20T11:15:32.095Z,6.53
2019-05-20T11:18:01.259Z,6.17
2019-05-20T11:20:30.397Z,6.08
2019-05-20T11:23:01.224Z,6.20
2019-05-20T11:25:30.365Z,6.10
2019-05-20T11:27:59.590Z,6.15
2019-05-20T11:30:28.770Z,6.72
2019-05-20T11:32:57.948Z,6.17
2019-05-20T11:35:27.107Z,6.25
2019-05-20T11:37:56.291Z,6.40
2019-05-20T11:40:25.466Z,6.30
2019-05-20T11:42:54.670Z,6.63
2019-05-20T11:45:23.846Z,6.87
2019-05-20T11:47:53.076Z,6.10
2019-05-20T11:50:22.238Z,6.87
2019-05-20T11:52:51.407Z,6.83
2019-05-20T11:55:20.590Z,6.67
2019-05-20T11:57:49.686Z,7.40
2019-05-20T12:00:18.947Z,7.37
2019-05-20T12:02:48.154Z,7.50
2019-05-20T12:05:17.586Z,6.90
2019-05-20T12:07:46.742Z,7.30
2019-05-20T12:10:16.736Z,7.30
2019-05-20T12:12:46.306Z,7.28
2019-05-20T12:15:15.724Z,7.20
2019-05-20T12:17:44.888Z,7.42
2019-05-20T12:20:14.077Z,7.75
2019-05-20T12:22:43.239Z,7.62
2019-05-20T12:25:12.429Z,7.28
2019-05-20T12:27:41.583Z,7.42
2019-05-20T12:30:10.859Z,7.33
2019-05-20T12:32:40.016Z,7.10
2019-05-20T12:35:09.245Z,7.65
2019-05-20T12:37:38.528Z,8.43
2019-05-20T12:40:08.534Z,8.00
2019-05-20T12:42:38.115Z,7.57
2019-05-20T12:45:07.546Z,7.45
2019-05-20T12:47:36.641Z,6.92
2019-05-20T12:50:05.817Z,7.25
2019-05-20T12:52:35.008Z,7.35
2019-05-20T12:55:08.541Z,7.28
2019-05-20T12:57:35.027Z,8.13
2019-05-20T13:00:04.584Z,7.83
2019-05-20T13:02:33.758Z,8.20
2019-05-20T13:05:02.942Z,7.37
2019-05-20T13:07:32.122Z,7.58
2019-05-20T13:10:03.176Z,7.12
2019-05-20T13:12:32.126Z,7.08
2019-05-20T13:15:01.295Z,5.95
2019-05-20T13:17:30.592Z,6.60
2019-05-20T13:20:00.223Z,5.83
2019-05-20T13:22:29.390Z,5.83
2019-05-20T13:24:58.563Z,6.00
2019-05-20T13:27:27.742Z,6.22
2019-05-20T13:29:56.847Z,5.75
2019-05-20T13:32:26.026Z,5.90
2019-05-20T13:34:55.200Z,6.30
2019-05-20T13:37:24.386Z,6.20
2019-05-20T13:39:53.564Z,5.37
2019-05-20T13:42:22.803Z,6.00
2019-05-20T13:44:51.970Z,5.60
2019-05-20T13:47:21.247Z,5.35
2019-05-20T13:49:50.471Z,5.45
2019-05-20T13:52:19.706Z,5.08
2019-05-20T13:54:48.926Z,5.12
2019-05-20T13:57:18.305Z,5.47
2019-05-20T13:59:47.429Z,4.97
2019-05-20T14:02:16.888Z,5.50
2019-05-20T14:04:46.076Z,4.85
2019-05-20T14:07:15.238Z,4.70
2019-05-20T14:09:44.502Z,5.40
2019-05-20T14:12:13.669Z,5.33
2019-05-20T14:14:42.770Z,5.12
2019-05-20T14:17:11.894Z,5.10
2019-05-20T14:19:40.993Z,4.72
2019-05-20T14:22:10.177Z,5.15
2019-05-20T14:24:39.398Z,5.03
2019-05-20T14:27:08.515Z,5.85
2019-05-20T14:29:38.005Z,6.53
2019-05-20T14:32:07.185Z,6.05
2019-05-20T14:34:36.359Z,6.28
2019-05-20T14:37:05.525Z,5.75
2019-05-20T14:39:34.711Z,6.00
2019-05-20T14:42:03.892Z,5.15
2019-05-20T14:44:33.074Z,5.28
2019-05-20T14:47:02.203Z,5.50
2019-05-20T14:49:31.378Z,5.10
2019-05-20T14:52:00.571Z,5.35
2019-05-20T14:54:29.755Z,4.80
2019-05-20T14:56:58.929Z,4.67
2019-05-20T14:59:28.104Z,4.42
2019-05-20T15:01:57.359Z,4.22
2019-05-20T15:04:26.635Z,4.40
2019-05-20T15:06:56.047Z,4.72
2019-05-20T15:09:25.221Z,6.15
2019-05-20T15:11:54.387Z,5.30
2019-05-20T15:14:23.587Z,5.65
2019-05-20T15:16:52.770Z,6.50
2019-05-20T15:19:22.501Z,5.97
2019-05-20T15:21:51.713Z,6.17
2019-05-20T15:24:20.957Z,6.28
2019-05-20T15:26:50.200Z,6.42
2019-05-20T15:29:27.879Z,6.67
2019-05-20T15:31:50.210Z,6.40
2019-05-20T15:34:19.393Z,6.95
2019-05-20T15:36:48.604Z,8.18
2019-05-20T15:39:17.786Z,7.65
2019-05-20T15:41:47.009Z,6.95
2019-05-20T15:44:16.182Z,8.05
2019-05-20T15:46:45.281Z,7.80
2019-05-20T15:49:14.455Z,8.03
2019-05-20T15:51:43.622Z,7.65
2019-05-20T15:54:12.805Z,7.85
2019-05-20T15:56:41.968Z,7.60
2019-05-20T15:59:11.146Z,7.75
2019-05-20T16:01:40.383Z,8.33
2019-05-20T16:04:09.586Z,8.95
2019-05-20T16:06:38.878Z,7.78
2019-05-20T16:09:08.042Z,7.60
2019-05-20T16:11:37.359Z,7.37
2019-05-20T16:14:06.471Z,7.53
2019-05-20T16:16:35.671Z,8.30
2019-05-20T16:19:05.098Z,9.05
2019-05-20T16:21:34.496Z,7.72
2019-05-20T16:24:03.714Z,10.33
2019-05-20T16:26:32.819Z,9.43
2019-05-20T16:29:01.983Z,9.93
2019-05-20T16:31:31.171Z,10.20
2019-05-20T16:34:00.357Z,10.63
2019-05-20T16:36:32.923Z,10.70
2019-05-20T16:39:02.115Z,10.43
2019-05-20T16:41:31.322Z,11.20
2019-05-20T16:44:00.519Z,12.13
2019-05-20T16:46:29.709Z,11.23
2019-05-20T16:48:59.294Z,11.23
2019-05-20T16:51:28.504Z,11.60
2019-05-20T16:53:57.718Z,11.45
2019-05-20T16:56:26.991Z,12.00
2019-05-20T16:58:56.203Z,12.00
2019-05-20T17:01:25.382Z,12.17
2019-05-20T17:03:54.562Z,12.17
2019-05-20T17:06:23.750Z,11.63
2019-05-20T17:08:52.942Z,12.77
2019-05-20T17:11:22.134Z,12.97
2019-05-20T17:13:51.327Z,11.93
2019-05-20T17:16:20.550Z,12.40
2019-05-20T17:18:49.757Z,12.43
2019-05-20T17:21:19.117Z,13.03
2019-05-20T17:23:48.490Z,12.70
2019-05-20T17:26:17.710Z,12.93
2019-05-20T17:28:46.922Z,12.53
2019-05-20T17:31:16.099Z,11.17
2019-05-20T17:33:45.315Z,12.07
2019-05-20T17:36:14.498Z,12.63
2019-05-20T17:38:43.669Z,12.37
2019-05-20T17:41:12.894Z,12.20
2019-05-20T17:43:42.071Z,12.90
2019-05-20T17:46:11.256Z,11.10
2019-05-20T17:48:40.426Z,10.97
2019-05-20T17:51:09.570Z,11.10
2019-05-20T17:53:38.768Z,11.00
2019-05-20T17:56:08.201Z,10.90
2019-05-20T17:58:37.711Z,11.20
2019-05-20T18:01:15.414Z,11.67
2019-05-20T18:03:37.822Z,11.50
2019-05-20T18:06:07.040Z,11.57
2019-05-20T18:08:42.316Z,11.07
2019-05-20T18:11:11.493Z,11.37
2019-05-20T18:13:40.654Z,11.57
2019-05-20T18:16:09.870Z,10.80
2019-05-20T18:18:39.175Z,11.10
2019-05-20T18:21:08.450Z,11.23
2019-05-20T18:23:37.640Z,11.70
2019-05-20T18:26:06.817Z,10.37
2019-05-20T18:28:36.066Z,11.20
2019-05-20T18:31:05.240Z,10.43
2019-05-20T18:33:34.435Z,11.43
2019-05-20T18:36:03.656Z,12.47
2019-05-20T18:38:32.774Z,11.53
2019-05-20T18:41:01.966Z,11.70
2019-05-20T18:43:31.150Z,11.27
2019-05-20T18:46:00.320Z,10.80
2019-05-20T18:48:29.554Z,11.17
2019-05-20T18:50:58.726Z,11.33
2019-05-20T18:53:27.916Z,10.10
2019-05-20T18:55:57.086Z,10.00
2019-05-20T18:58:26.266Z,10.03
2019-05-20T19:00:55.434Z,9.07
2019-05-20T19:03:24.920Z,8.93
2019-05-20T19:05:54.291Z,8.90
2019-05-20T19:08:25.635Z,8.37
2019-05-20T19:10:54.298Z,7.73
2019-05-20T19:13:23.510Z,7.07
2019-05-20T19:15:52.766Z,7.23
2019-05-20T19:18:21.901Z,7.23
2019-05-20T19:20:51.102Z,7.47
2019-05-20T19:23:20.246Z,7.23
2019-05-20T19:25:49.345Z,7.77
2019-05-20T19:28:18.690Z,7.27
2019-05-20T19:30:47.867Z,7.30
2019-05-20T19:33:17.171Z,6.80
2019-05-20T19:35:46.360Z,6.80
2019-05-20T19:38:15.530Z,7.00
2019-05-20T19:40:44.859Z,6.47
2019-05-20T19:43:15.342Z,6.93
2019-05-20T19:45:44.506Z,6.33
2019-05-20T19:48:13.686Z,6.20
2019-05-20T19:50:48.153Z,6.97
2019-05-20T19:53:17.370Z,6.53
2019-05-20T19:55:46.578Z,6.07
2019-05-20T19:58:15.809Z,6.47
2019-05-20T20:00:49.071Z,6.70
2019-05-20T20:03:19.769Z,6.67
2019-05-20T20:05:49.022Z,6.53
2019-05-20T20:08:18.310Z,6.80
2019-05-20T20:10:47.496Z,6.77
2019-05-20T20:13:19.704Z,6.70
2019-05-20T20:15:47.890Z,6.33
2019-05-20T20:18:17.187Z,6.47
2019-05-20T20:20:48.973Z,6.60
2019-05-20T20:23:18.292Z,6.80
2019-05-20T20:25:49.063Z,6.50
2019-05-20T20:28:21.398Z,6.80
2019-05-20T20:30:53.402Z,6.73
2019-05-20T20:33:22.670Z,7.53
2019-05-20T20:35:51.938Z,7.20
2019-05-20T20:38:21.114Z,7.20
2019-05-20T20:40:50.298Z,7.17
2019-05-20T20:43:19.902Z,7.13
2019-05-20T20:45:49.110Z,7.27
2019-05-20T20:48:18.406Z,7.77
2019-05-20T20:50:49.079Z,7.77
2019-05-20T20:53:18.314Z,7.77
2019-05-20T20:55:47.488Z,7.67
2019-05-20T20:58:16.681Z,8.43
2019-05-20T21:00:45.882Z,7.67
2019-05-20T21:03:15.054Z,8.67
2019-05-20T21:05:44.216Z,8.00
2019-05-20T21:08:13.432Z,7.30
2019-05-20T21:10:42.589Z,7.90
2019-05-20T21:13:11.694Z,8.47
2019-05-20T21:15:40.813Z,8.07
2019-05-20T21:18:09.982Z,8.97
2019-05-20T21:20:39.154Z,8.80
2019-05-20T21:23:08.378Z,8.77
2019-05-20T21:25:37.565Z,8.93
2019-05-20T21:28:06.721Z,8.67
2019-05-20T21:30:35.826Z,8.17
2019-05-20T21:33:09.126Z,8.13
2019-05-20T21:35:35.826Z,8.47
2019-05-20T21:38:05.069Z,7.90
2019-05-20T21:40:34.181Z,7.87
2019-05-20T21:43:03.304Z,7.83
2019-05-20T21:45:33.858Z,8.13
2019-05-20T21:48:03.083Z,7.30
2019-05-20T21:50:33.178Z,7.63
2019-05-20T21:53:02.363Z,7.40
2019-05-20T21:55:31.630Z,7.47
2019-05-20T21:58:00.826Z,7.60
2019-05-20T22:01:04.234Z,7.50
2019-05-20T22:03:33.405Z,7.93
2019-05-20T22:06:02.602Z,7.90
2019-05-20T22:08:31.809Z,7.80
2019-05-20T22:11:00.910Z,8.10
2019-05-20T22:13:29.997Z,8.13
2019-05-20T22:15:59.136Z,8.17
2019-05-20T22:18:28.318Z,8.07
2019-05-20T22:20:57.435Z,7.97
2019-05-20T22:23:54.721Z,7.50
2019-05-20T22:26:23.896Z,8.57
2019-05-20T22:28:53.053Z,8.43
2019-05-20T22:31:22.167Z,8.23
2019-05-20T22:33:51.257Z,8.50
2019-05-20T22:36:20.664Z,7.73
2019-05-20T22:38:49.833Z,7.93
2019-05-20T22:41:18.923Z,8.43
2019-05-20T22:43:48.225Z,8.13
2019-05-20T22:46:17.518Z,7.53
2019-05-20T22:48:46.652Z,8.80
2019-05-20T22:51:15.809Z,8.63
2019-05-20T22:53:44.914Z,8.73
2019-05-20T22:56:14.096Z,8.90
2019-05-20T22:58:43.263Z,8.87
2019-05-20T23:01:12.496Z,9.03
2019-05-20T23:03:55.371Z,8.77
2019-05-20T23:06:12.499Z,8.90
2019-05-20T23:08:41.722Z,8.53
2019-05-20T23:11:10.859Z,9.07
2019-05-20T23:13:40.041Z,8.37
2019-05-20T23:16:09.146Z,8.53
2019-05-20T23:18:38.310Z,9.07
2019-05-20T23:21:07.557Z,7.17
2019-05-20T23:23:36.733Z,8.73
2019-05-20T23:26:05.906Z,8.40
2019-05-20T23:28:35.006Z,8.13
2019-05-20T23:31:04.294Z,8.10
2019-05-20T23:33:33.498Z,8.10
2019-05-20T23:36:02.670Z,7.87
2019-05-20T23:38:31.825Z,8.63
2019-05-20T23:41:00.937Z,7.60
2019-05-20T23:43:30.197Z,7.47
2019-05-20T23:45:59.310Z,8.20
2019-05-20T23:48:28.407Z,8.10
2019-05-20T23:50:57.570Z,8.00
2019-05-20T23:53:26.975Z,8.20
2019-05-20T23:55:56.147Z,7.10
2019-05-20T23:58:25.315Z,7.83
